Date,TemperatureHighF,TemperatureAvgF,TemperatureLowF,DewpointHighF,DewpointAvgF,DewpointLowF,HumidityHigh,HumidityAvg,HumidityLow,PressureMaxIn,PressureMinIn,WindSpeedMaxMPH,WindSpeedAvgMPH,GustSpeedMaxMPH,PrecipitationSumIn
2013-1-1,32,24,11,22,17,7,87,74,59,30.49,30.38,10,4,0,0.00
2013-1-2,28,28,28,25,24,24,87,86,86,30.37,30.36,14,10,14,0.00
2013-1-4,41,26,12,23,15,6,77,63,44,30.47,30.28,14,6,16,0.00
2013-1-5,41,26,14,26,16,8,78,66,49,30.40,30.21,25,12,31,0.00
2013-1-8,46,40,34,30,27,25,69,61,52,30.39,30.05,18,9,18,0.00
2013-1-9,53,39,28,31,26,20,77,63,40,30.56,30.37,23,10,28,0.00
2013-1-10,42,38,34,32,28,25,90,68,55,30.38,29.73,23,12,29,0.00
2013-1-11,36,30,16,34,27,9,91,87,73,30.07,29.49,34,12,36,0.00
2013-1-12,16,13,9,9,5,1,73,70,65,30.20,30.06,22,17,28,0.00
2013-1-14,24,23,20,12,9,8,71,54,51,30.59,30.57,9,5,9,0.00
2013-1-15,13,10,8,8,6,3,84,82,80,30.51,30.49,8,6,9,0.00
2013-1-16,50,41,32,28,25,22,68,54,39,30.30,30.23,25,18,29,0.00
2013-1-17,52,41,26,26,24,18,73,52,35,30.64,30.36,17,9,25,0.00
2013-1-18,58,45,27,25,22,19,74,42,26,30.37,30.06,18,10,22,0.00
2013-1-19,55,42,32,25,22,19,68,47,28,30.41,30.05,24,13,28,0.00
2013-1-20,36,23,19,27,10,-100,85,70,63,30.63,30.36,28,-57,29,0.00
2013-1-21,25,20,15,14,12,9,83,73,60,30.60,30.44,11,6,15,0.00
2013-1-22,34,20,10,18,12,6,83,72,51,30.50,30.38,12,6,13,0.00
2013-1-23,23,22,20,15,14,13,76,73,70,30.42,30.37,11,4,12,0.00
2013-1-25,48,44,41,26,25,24,53,47,41,30.32,30.28,13,8,17,0.00
2013-1-26,55,43,34,36,28,24,80,57,39,30.28,29.97,20,11,24,0.00
2013-1-27,51,42,38,43,37,35,90,84,71,29.97,29.80,12,6,15,0.00
2013-1-28,40,33,32,36,29,27,87,86,84,29.92,29.86,17,12,19,0.01
2013-1-29,32,30,29,27,26,25,85,85,83,29.90,29.85,15,11,20,0.00
2013-2-2,52,41,34,28,23,-100,77,53,32,30.41,30.28,34,0,40,0.00
2013-2-3,52,40,27,26,24,20,77,55,35,30.40,29.97,23,10,30,0.00
2013-2-4,51,38,28,29,25,21,76,62,38,30.12,29.99,12,6,16,0.00
2013-2-7,52,41,30,30,23,15,80,51,27,30.32,30.12,15,9,20,0.00
2013-2-8,48,34,19,30,25,15,88,71,48,30.33,30.05,25,15,33,0.00
2013-2-9,49,38,28,38,29,22,87,71,46,30.07,29.53,25,15,34,0.00
2013-2-10,38,30,26,35,24,18,89,78,66,30.17,29.36,38,25,48,0.00
2013-2-11,33,26,17,18,15,10,76,64,49,30.39,30.17,20,10,23,0.00
2013-2-12,40,29,21,22,15,12,73,57,39,30.31,30.18,20,9,20,0.02
2013-2-13,49,38,26,30,23,17,74,56,42,30.16,29.97,22,15,25,0.01
2013-2-14,38,31,23,30,23,15,82,71,51,30.52,30.09,22,10,25,0.02
2013-2-15,32,24,17,19,12,8,84,63,41,30.58,30.51,23,10,27,0.00
2013-2-16,20,19,18,10,9,8,66,64,62,30.55,30.51,11,7,12,0.00
2013-2-19,34,23,16,15,12,8,72,62,42,30.51,30.39,13,7,17,0.00
2013-2-20,22,19,12,18,8,-100,84,76,62,30.38,30.24,21,-56,25,0.00
2013-2-21,16,16,15,13,12,11,85,84,84,30.25,30.19,17,12,21,0.00
2013-2-22,22,18,8,16,12,4,83,79,75,30.33,30.27,13,9,13,0.00
2013-2-23,28,28,27,24,23,23,85,84,83,30.00,29.99,2,2,5,0.00
2013-2-24,27,27,27,23,23,23,85,85,85,30.00,30.00,3,2,4,0.00
2013-3-1,37,31,28,26,24,22,81,75,65,30.54,30.50,7,4,8,0.00
2013-3-2,56,38,21,39,29,17,88,71,51,30.52,30.16,8,3,9,0.00
2013-3-3,56,44,35,38,34,29,80,68,50,30.16,29.69,13,6,19,0.00
2013-3-4,45,37,25,34,20,9,79,51,33,30.32,29.69,33,20,38,0.00
2013-3-5,37,28,21,16,13,10,69,54,38,30.58,30.32,33,16,39,0.00
2013-3-6,23,22,20,14,13,13,74,70,67,30.56,30.53,12,7,13,0.00
2013-3-9,54,37,30,50,33,25,91,84,76,30.03,29.63,32,19,42,0.00
2013-3-10,30,23,17,27,16,11,88,74,64,30.32,30.02,30,22,38,0.00
2013-3-11,52,33,15,30,20,10,80,62,41,30.28,30.09,26,11,29,0.00
2013-3-12,41,35,29,26,16,9,74,47,28,30.50,30.25,30,16,34,0.00
2013-3-13,62,41,24,33,19,-100,65,44,33,30.50,30.25,17,-15,24,0.00
2013-3-14,72,56,41,37,32,-100,71,44,25,30.29,30.08,16,-4,18,0.00
2013-3-15,75,57,44,37,33,31,64,43,21,30.08,29.75,19,10,24,0.00
2013-3-19,31,31,30,10,10,10,42,42,41,30.51,30.50,13,11,15,0.00
2013-3-20,45,34,19,19,15,9,64,47,33,30.58,30.13,18,12,25,0.00
2013-3-21,43,35,28,26,20,15,86,54,40,30.13,29.86,25,17,30,0.00
2013-3-22,41,33,29,29,27,25,88,80,61,30.15,29.99,15,8,18,0.00
2013-3-23,31,28,27,27,22,-100,88,84,81,30.24,30.13,18,-12,23,0.00
2013-3-26,45,36,15,24,18,9,77,51,31,30.54,30.28,20,11,29,0.00
2013-3-27,57,42,28,29,26,21,78,56,33,30.32,30.23,11,5,15,0.00
2013-3-28,63,47,32,34,29,24,74,52,32,30.32,30.15,18,9,24,0.00
2013-3-29,67,53,40,46,36,-100,78,54,40,30.25,30.01,20,10,27,0.09
2013-3-30,62,50,39,44,39,-100,90,68,41,30.14,30.00,22,10,27,0.00
2013-4-2,54,43,30,29,26,21,71,51,37,30.40,30.28,15,8,20,0.00
2013-4-3,53,43,36,30,26,22,71,53,36,30.38,30.25,27,12,28,0.00
2013-4-4,63,47,31,37,32,26,81,58,36,30.31,30.18,15,7,17,0.00
2013-4-5,74,43,35,41,10,-100,80,44,26,30.19,29.66,20,-168,28,0.00
2013-4-6,69,52,48,41,16,-100,67,36,25,29.87,29.66,35,-132,37,0.00
2013-4-7,62,54,50,49,38,29,82,57,37,29.87,29.67,16,6,21,0.05
2013-4-8,72,53,40,54,43,-100,89,74,33,29.79,29.59,32,10,44,1.11
2013-4-13,64,51,32,47,40,28,86,67,47,30.10,29.52,27,14,40,0.00
2013-4-14,55,48,44,47,36,20,87,64,32,29.73,29.38,41,22,44,0.00
2013-4-15,45,36,29,24,21,16,68,56,41,30.25,29.98,16,9,20,0.00
2013-4-16,42,36,29,30,28,23,89,74,55,30.37,30.22,24,11,26,0.06
2013-4-17,40,32,28,30,27,23,88,82,67,30.29,30.07,34,17,41,0.00
2013-4-18,31,27,25,24,21,17,87,77,60,30.25,30.12,31,23,36,0.00
2013-4-19,47,37,27,30,25,19,74,61,47,30.24,30.18,26,13,0,0.00
2013-4-20,52,41,31,34,28,23,74,62,47,30.24,30.13,19,14,0,0.00
2013-4-21,65,48,34,43,36,29,85,66,37,30.18,30.08,17,7,0,0.03
2013-4-22,42,34,28,38,30,21,90,83,74,30.52,30.06,22,17,0,0.26
2013-4-23,39,35,31,18,18,16,57,49,41,30.42,30.38,13,5,29,0.00
2013-4-24,54,42,27,30,28,17,69,59,30,30.42,30.27,29,7,30,0.00
2013-4-25,70,52,34,36,30,27,77,48,24,30.39,29.98,34,15,43,0.00
2013-4-26,72,60,47,43,31,27,63,35,22,30.21,30.01,21,10,28,0.00
2013-4-27,78,61,43,46,41,33,87,53,20,30.21,29.93,18,7,24,0.00
2013-4-28,84,66,50,44,40,33,72,43,17,29.94,29.70,23,10,29,0.00
2013-4-29,80,66,52,49,42,37,60,42,25,29.87,29.48,19,10,26,0.00
2013-4-30,70,59,46,49,38,27,68,47,29,30.11,29.47,26,16,33,0.00
2013-5-1,46,35,32,35,30,25,88,83,65,30.68,29.98,24,16,36,0.33
2013-5-2,50,48,46,29,25,22,48,39,34,30.72,30.63,14,9,31,0.00
2013-5-3,55,48,33,30,24,18,75,41,27,30.49,30.23,17,9,25,0.00
2013-5-4,52,48,40,26,24,19,58,39,30,30.36,30.26,24,15,29,0.00
2013-5-5,61,39,30,26,24,22,72,58,24,30.37,30.24,11,8,16,0.00
2013-5-6,68,56,40,45,37,27,85,52,31,30.25,30.07,12,6,0,0.00
2013-5-7,64,57,53,53,47,36,86,70,46,30.09,29.94,19,12,0,0.02
2013-5-8,72,61,51,52,48,43,88,65,36,30.02,29.93,17,8,0,0.17
2013-5-9,60,56,52,50,48,44,87,75,61,30.17,29.98,18,10,0,0.01
2013-5-10,71,59,47,48,45,42,87,63,35,30.22,30.11,17,6,22,0.00
2013-5-11,64,56,47,44,32,24,63,42,27,30.42,30.20,20,11,26,0.00
2013-5-12,76,58,41,46,37,28,65,46,25,30.33,30.08,16,8,19,0.00
2013-5-13,93,74,55,52,47,43,72,43,20,30.11,29.85,14,6,21,0.00
2013-5-14,96,82,64,52,47,42,49,31,18,29.85,29.64,18,10,22,0.00
2013-5-15,79,71,62,48,43,39,48,37,28,29.89,29.75,25,16,0,0.00
2013-5-16,78,65,58,58,52,41,82,65,40,29.86,29.75,24,9,0,0.21
2013-5-17,84,70,55,60,55,49,83,62,37,29.90,29.75,21,10,0,0.00
2013-5-18,78,70,60,65,60,48,87,73,41,29.82,29.50,28,14,37,0.03
2013-5-19,66,59,56,56,52,-100,86,77,64,29.74,29.58,24,11,29,0.49
2013-5-20,62,57,54,53,50,44,88,78,55,29.73,29.66,25,13,31,0.03
2013-5-22,66,55,47,48,44,40,83,69,52,30.15,29.92,22,14,0,0.00
2013-5-23,67,56,48,49,46,43,84,70,50,30.27,30.15,19,12,0,0.00
2013-5-24,77,62,55,61,51,-100,85,72,56,30.23,29.94,24,18,0,1.10
2013-5-25,88,72,59,63,57,50,84,63,38,30.05,29.76,25,14,0,0.27
2013-5-26,89,77,65,66,63,61,86,65,41,29.80,29.62,22,13,31,0.00
2013-5-27,77,67,58,65,60,53,91,78,62,29.77,29.58,31,12,38,0.35
2013-5-28,76,64,55,61,55,51,88,74,51,29.79,29.60,24,9,30,0.00
2013-5-29,67,59,56,61,54,52,90,84,71,29.71,29.48,22,11,28,1.74
2013-5-30,76,64,54,54,48,41,88,61,29,29.70,29.54,22,12,29,0.00
2013-5-31,70,61,52,48,43,38,70,53,34,29.87,29.70,31,18,38,0.00
2013-6-1,55,52,51,45,44,43,80,73,64,30.11,29.84,31,22,37,0.00
2013-6-2,71,58,43,48,44,38,82,61,43,30.25,29.98,15,8,0,0.00
2013-6-3,81,66,53,59,51,44,78,59,46,30.01,29.67,27,19,0,0.02
2013-6-4,70,66,59,59,53,47,88,65,49,30.09,29.75,31,11,20,0.36
2013-6-5,66,58,50,51,45,42,80,64,46,30.20,30.06,22,11,29,0.07
2013-6-6,72,60,46,49,46,41,85,63,42,30.17,30.04,12,6,22,0.00
2013-6-7,80,66,50,54,50,45,82,58,34,30.13,29.82,19,6,27,0.00
2013-6-8,70,64,60,58,56,54,85,76,58,29.84,29.63,24,11,30,0.08
2013-6-9,78,68,57,52,50,46,77,56,34,29.97,29.88,19,13,0,0.00
2013-6-10,94,76,58,68,56,48,70,52,35,29.90,29.69,15,10,0,0.00
2013-6-11,98,85,73,68,61,53,64,45,31,29.75,29.47,25,12,0,0.00
2013-6-12,82,73,60,66,59,50,84,63,42,30.10,29.58,20,14,0,0.00
2013-6-13,81,67,54,58,52,47,83,62,44,30.17,29.94,16,10,0,0.00
2013-6-14,89,79,68,66,61,51,72,55,28,30.00,29.74,27,12,26,0.00
2013-6-15,82,75,66,62,61,56,81,62,48,29.98,29.80,20,10,24,0.00
2013-6-16,84,71,63,65,60,47,83,69,28,30.08,29.86,27,10,42,0.00
2013-6-17,81,68,54,58,56,50,89,66,42,30.13,29.99,13,6,42,0.00
2013-6-18,80,72,60,63,59,51,83,65,48,30.11,29.92,21,9,0,0.29
2013-6-19,83,74,62,62,60,56,81,63,47,29.97,29.77,23,13,0,0.00
2013-6-20,92,79,69,68,64,61,82,62,42,29.81,29.66,20,14,0,0.00
2013-6-21,96,84,64,66,60,48,75,46,23,29.77,29.58,29,15,0,0.00
2013-6-22,92,73,64,71,60,47,77,64,24,29.86,29.59,39,13,54,0.19
2013-6-23,78,70,60,66,60,54,86,73,59,29.90,29.71,26,8,40,0.16
2013-6-24,86,74,62,70,64,56,88,72,54,29.95,29.62,33,11,52,0.44
2013-6-25,90,80,70,68,62,52,81,57,28,29.75,29.63,20,9,22,0.00
2013-6-26,94,80,64,72,62,56,78,57,34,29.92,29.74,11,6,15,0.00
2013-6-27,78,77,77,67,67,66,70,70,69,29.86,29.85,8,6,15,0.00
2013-6-28,85,76,66,63,58,54,85,56,36,30.12,30.01,14,9,0,0.00
2013-6-29,80,72,61,58,54,50,78,54,36,30.08,30.01,16,10,0,0.00
2013-6-30,78,69,56,56,53,50,82,59,38,30.19,30.08,13,8,0,0.00
2013-7-1,76,67,55,53,50,44,81,56,32,30.30,30.19,10,4,0,0.00
2013-7-2,79,68,53,54,49,46,80,53,32,30.26,30.11,11,5,15,0.00
2013-7-3,84,69,60,54,50,46,66,52,31,30.13,29.88,17,7,24,0.00
2013-7-4,89,74,65,55,51,48,59,45,26,29.94,29.77,18,9,24,0.00
2013-7-5,90,79,68,62,56,50,57,46,36,29.82,29.68,23,12,32,0.00
2013-7-6,94,81,71,69,62,57,64,53,36,29.73,29.66,21,11,30,0.00
2013-7-7,89,79,66,70,66,61,84,66,48,29.93,29.72,24,8,28,0.05
2013-7-8,90,78,68,70,67,63,88,69,46,29.97,29.81,28,9,47,0.04
2013-7-9,95,80,69,73,66,62,80,64,40,30.04,29.84,18,6,24,0.00
2013-7-10,80,74,68,66,62,58,78,68,55,30.14,29.99,16,8,27,0.05
2013-7-11,89,78,67,69,66,62,83,68,48,30.07,29.85,18,12,25,0.00
2013-7-12,99,84,73,73,66,61,74,58,31,29.90,29.72,19,12,27,0.00
2013-7-13,86,82,76,64,63,61,61,52,46,29.84,29.78,20,10,33,0.00
2013-7-14,83,76,72,69,67,63,83,73,62,30.10,29.79,21,10,0,0.00
2013-7-15,72,72,72,67,67,67,83,83,83,30.11,30.10,8,7,22,0.00
2013-7-16,82,73,64,62,60,60,86,67,49,30.26,30.15,18,13,0,0.00
2013-7-17,87,76,64,63,61,58,83,62,41,30.30,30.11,19,11,0,0.00
2013-7-18,90,80,69,65,63,61,81,57,38,30.13,29.86,19,13,0,0.00
2013-7-19,88,80,72,66,61,56,69,54,37,29.96,29.89,17,10,24,0.00
2013-7-20,83,74,59,67,62,-100,88,69,53,30.04,29.82,30,10,40,0.58
2013-7-21,90,75,60,68,60,55,87,61,35,30.03,29.76,29,9,33,0.18
2013-7-22,90,79,66,68,62,-100,85,57,41,29.90,29.70,27,8,33,0.32
2013-7-23,87,73,63,65,60,55,81,65,37,30.02,29.82,23,10,30,0.00
2013-7-24,85,73,61,67,62,58,90,71,44,30.13,29.98,10,4,16,0.00
2013-7-25,78,72,67,64,59,53,81,64,45,30.05,29.96,24,11,31,0.05
2013-7-26,75,68,61,63,56,52,90,68,46,30.24,30.08,11,8,0,0.00
2013-7-27,63,59,56,53,51,50,87,75,66,30.20,30.09,16,7,19,0.32
2013-7-28,62,58,56,56,53,50,90,83,71,30.14,30.05,14,7,18,0.00
2013-7-29,69,63,58,63,60,55,91,87,79,30.09,30.01,11,6,18,0.06
2013-7-30,81,69,60,66,62,58,92,82,54,30.23,30.05,24,6,34,0.01
2013-7-31,80,72,64,66,63,54,88,73,59,30.23,30.09,24,8,33,0.06
2013-8-1,88,77,66,69,65,61,86,69,48,30.15,29.75,31,10,38,0.20
2013-8-2,80,71,62,67,63,58,91,76,61,30.01,29.81,20,9,0,0.04
2013-8-3,73,67,63,65,62,59,91,82,68,30.23,30.02,24,11,0,0.04
2013-8-4,76,68,62,68,62,58,90,84,75,30.18,30.00,14,9,0,0.09
2013-8-5,84,75,69,72,69,66,92,83,67,30.02,29.84,12,6,0,0.00
2013-8-6,86,76,70,71,68,64,90,75,55,29.91,29.81,22,8,15,0.00
2013-8-7,80,74,69,65,61,56,75,65,47,30.00,29.90,12,7,16,0.00
2013-8-8,78,70,64,64,61,58,89,75,54,30.08,29.96,9,2,10,0.15
2013-8-9,80,68,58,64,59,55,92,76,50,30.15,30.08,5,1,9,0.00
2013-8-10,83,72,60,62,59,57,90,66,42,30.18,30.04,9,4,0,0.00
2013-8-11,86,74,66,69,64,59,87,71,53,30.09,29.96,8,4,0,0.23
2013-8-12,80,71,61,67,63,58,91,77,60,30.09,30.00,5,2,0,0.01
2013-8-13,76,69,61,65,62,57,89,79,59,30.20,30.08,8,4,16,0.37
2013-8-14,76,69,63,65,62,59,90,79,66,30.18,30.02,12,5,15,0.09
2013-8-15,81,70,62,67,62,54,90,76,50,30.10,29.99,8,4,13,0.07
2013-8-16,76,68,65,64,62,61,89,82,64,30.15,30.08,7,4,11,0.00
2013-8-17,74,69,64,66,63,60,90,81,73,30.15,30.05,8,5,14,0.00
2013-8-18,78,70,63,66,63,59,87,77,63,30.09,29.99,9,5,16,0.00
2013-8-19,89,77,64,71,66,60,87,70,48,30.03,29.87,7,4,13,0.00
2013-8-20,94,80,66,71,65,61,84,63,39,29.92,29.81,9,4,14,0.00
2013-8-21,93,82,70,70,66,62,79,60,44,29.91,29.78,10,5,15,0.00
2013-8-22,83,83,82,64,63,63,52,52,52,29.89,29.88,4,4,6,0.00
2013-8-23,86,80,77,70,69,68,76,70,58,29.88,29.85,8,5,16,0.00
2013-8-24,96,84,70,68,63,60,74,50,32,29.94,29.84,12,7,23,0.00
2013-8-25,96,85,73,67,63,60,72,51,32,29.98,29.89,12,7,20,0.00
2013-8-26,99,86,74,68,63,60,66,48,29,29.96,29.82,9,6,17,0.00
2013-8-27,98,85,72,68,62,58,66,48,29,29.90,29.80,8,4,16,0.00
2013-8-28,93,80,66,70,62,57,76,54,34,29.94,29.86,8,3,16,0.00
2013-8-29,99,80,65,72,66,61,88,65,29,29.95,29.85,9,3,0,0.00
2013-8-30,95,79,64,71,66,60,88,67,40,30.04,29.84,11,4,0,0.09
2013-8-31,92,77,62,72,66,59,88,69,45,30.00,29.77,6,2,12,0.03
2013-9-1,83,74,62,65,56,50,77,56,33,30.07,29.87,7,3,11,0.00
2013-9-2,86,70,53,64,57,49,88,65,39,30.14,29.99,9,3,14,0.00
2013-9-3,78,70,65,62,58,56,78,67,53,30.05,29.94,7,3,11,0.00
2013-9-4,95,79,67,65,60,56,72,54,34,30.09,29.94,12,6,17,0.00
2013-9-5,92,80,69,64,60,57,71,52,35,30.09,29.96,10,5,18,0.00
2013-9-6,102,84,65,62,58,52,77,46,23,30.01,29.80,8,4,12,0.00
2013-9-7,97,81,62,72,62,51,82,55,33,29.91,29.81,9,3,11,0.00
2013-9-8,94,79,67,71,66,55,92,67,38,29.89,29.70,10,3,15,0.02
2013-9-9,96,84,72,62,58,53,65,44,25,29.81,29.66,11,5,19,0.00
2013-9-10,85,74,67,64,61,58,77,66,48,29.97,29.79,8,4,12,0.00
2013-9-11,74,69,65,66,62,60,87,79,69,30.19,30.06,5,2,8,0.08
2013-9-12,80,70,64,63,60,55,90,72,47,30.27,30.17,10,4,17,0.00
2013-9-13,67,62,59,56,52,48,81,70,52,30.23,30.07,9,4,16,0.00
2013-9-14,76,66,60,63,56,51,74,68,62,30.08,29.85,10,6,20,0.00
2013-9-15,68,63,59,62,56,52,87,78,64,30.30,29.88,8,5,0,0.12
2013-9-16,58,57,55,52,52,51,89,83,77,30.34,30.20,4,3,0,0.00
2013-9-17,83,64,56,67,58,53,91,82,56,30.20,29.81,8,5,15,0.00
2013-9-18,92,82,66,68,64,56,84,57,39,29.74,29.59,9,4,19,0.03
2013-9-19,73,61,50,59,53,46,88,75,61,30.17,29.67,13,3,18,0.25
2013-9-20,75,58,41,54,46,38,88,67,39,30.25,30.05,4,2,9,0.01
2013-9-21,83,66,48,57,50,43,85,60,34,30.08,29.80,10,4,17,0.00
2013-9-22,83,70,58,58,52,46,63,53,38,29.80,29.61,17,9,26,0.00
2013-9-23,68,61,57,55,51,47,89,71,55,29.81,29.54,14,8,23,1.23
2013-9-24,59,54,50,53,50,46,88,84,77,30.07,29.81,8,4,14,0.00
2013-9-25,79,62,48,55,51,45,89,71,44,29.96,29.59,14,6,0,0.01
2013-9-26,87,72,59,59,55,51,75,57,35,29.66,29.56,12,5,0,0.00
2013-9-27,75,64,49,58,54,45,89,72,56,29.84,29.59,12,4,21,1.24
2013-9-28,68,54,45,48,42,38,86,65,35,30.15,29.82,10,3,18,0.00
2013-9-29,78,63,48,49,43,38,71,50,27,30.15,29.83,11,5,19,0.00
2013-9-30,84,67,52,53,49,45,77,54,28,29.85,29.69,9,3,15,0.00
2013-10-1,74,64,53,52,44,36,75,51,29,30.03,29.76,9,4,16,0.00
2013-10-2,78,64,51,63,53,44,86,69,47,29.97,29.81,10,2,16,0.00
2013-10-3,65,59,54,60,53,46,90,81,54,29.84,29.74,7,3,14,0.00
2013-10-4,62,52,39,59,46,29,92,81,64,30.06,29.66,13,7,23,0.00
2013-10-5,44,40,38,35,31,29,82,68,58,30.19,30.06,16,10,33,0.04
2013-10-6,65,50,39,37,33,30,77,54,31,30.24,30.14,14,8,29,0.00
2013-10-7,80,57,36,47,39,31,86,57,29,30.23,29.99,9,3,20,0.00
2013-10-8,80,64,50,46,43,40,69,48,26,29.99,29.75,13,8,24,0.00
2013-10-9,63,61,60,46,45,44,56,55,52,29.81,29.80,10,7,15,0.00
2013-10-10,80,64,48,57,50,43,86,62,40,29.90,29.56,19,8,0,0.37
2013-10-11,57,54,51,45,43,42,72,66,60,29.55,29.52,15,7,23,0.04
2013-10-12,62,50,38,42,36,31,83,62,33,30.35,30.06,4,1,0,0.00
2013-10-13,64,53,42,42,38,34,82,60,35,30.43,30.20,14,6,0,0.03
2013-10-14,66,55,45,58,48,36,90,78,60,30.19,29.66,14,8,0,0.59
2013-10-15,46,43,37,36,33,30,76,66,60,30.34,30.03,18,11,28,0.00
2013-10-16,53,40,30,35,31,26,86,71,43,30.33,30.10,7,2,23,0.00
2013-10-17,50,40,31,37,31,27,86,71,52,30.28,30.08,16,4,23,0.00
2013-10-18,51,39,32,35,29,26,84,69,46,30.31,30.19,13,2,22,0.00
2013-10-19,65,48,33,38,32,26,80,55,34,30.21,29.93,10,4,17,0.00
2013-10-20,58,44,38,41,34,30,76,69,49,29.97,29.88,10,2,15,0.00
2013-10-21,60,45,31,40,34,27,85,67,38,30.22,30.08,8,3,0,0.00
2013-10-22,60,50,41,42,38,33,82,64,43,30.21,30.09,14,4,23,0.00
2013-10-23,65,49,37,43,37,32,83,65,40,30.35,30.13,14,4,22,0.00
2013-10-24,46,42,39,37,34,31,77,73,70,30.51,30.34,5,3,8,0.00
2013-10-25,40,39,36,32,30,29,79,72,64,30.48,30.43,7,3,4,0.00
2013-10-26,61,47,36,38,32,29,84,61,31,30.42,30.21,6,3,0,0.00
2013-10-27,54,53,52,40,40,40,62,61,60,29.96,29.96,8,7,11,0.00
2013-10-28,52,43,36,39,34,30,86,70,57,30.24,29.97,13,9,16,0.00
2013-10-29,39,38,35,36,35,32,89,89,86,30.22,30.17,7,4,11,0.03
2013-10-30,49,39,32,39,35,29,91,85,69,30.19,29.93,6,2,0,0.05
2013-10-31,60,42,28,37,31,25,89,68,34,29.92,29.75,14,5,0,0.01
2013-11-1,57,45,34,38,32,24,80,61,34,30.27,29.86,14,6,27,0.00
2013-11-2,59,52,33,32,29,24,77,43,31,30.39,30.03,9,6,27,0.00
2013-11-3,65,48,38,39,33,30,74,58,36,30.02,29.62,12,5,27,0.00
2013-11-4,50,44,34,36,32,26,78,63,45,30.24,29.76,11,5,15,0.00
2013-11-5,36,34,30,32,29,26,88,84,74,30.34,30.12,8,4,15,0.58
2013-11-6,45,34,26,32,27,22,86,76,56,30.51,30.33,7,3,15,0.03
2013-11-7,53,39,27,35,30,23,86,70,45,30.64,30.27,9,2,15,0.01
2013-11-8,69,48,35,40,34,29,83,62,30,30.27,29.82,11,3,16,0.00
2013-11-9,55,39,33,36,31,27,80,73,43,30.32,30.10,3,2,15,0.00
2013-11-10,55,40,29,44,34,25,88,78,63,30.49,30.27,10,2,16,0.00
2013-11-11,43,31,23,37,23,11,90,75,56,30.98,30.25,11,5,15,0.00
2013-11-12,42,29,15,28,20,9,80,68,55,31.04,30.65,8,4,13,0.00
2013-11-13,66,44,28,38,32,22,83,63,35,30.65,30.04,9,3,13,0.00
2013-11-14,48,44,40,39,37,32,78,75,72,30.12,30.03,8,4,13,0.00
2013-11-15,58,46,35,38,35,30,82,67,47,30.00,29.55,11,5,0,0.00
2013-11-16,60,46,33,37,31,28,87,60,30,29.55,29.42,10,3,0,0.00
2013-11-17,51,44,28,38,26,18,73,52,32,30.23,29.53,20,8,0,0.02
2013-11-18,60,40,23,25,21,15,74,50,26,30.38,30.22,11,3,0,0.00
2013-11-19,57,46,33,35,28,20,67,51,40,30.21,29.83,12,6,14,0.00
2013-11-20,57,44,34,36,32,25,76,64,38,30.16,29.81,11,3,14,0.00
2013-11-21,33,20,14,24,12,7,81,73,66,30.91,30.17,13,8,19,0.00
2013-11-22,33,20,10,17,11,4,77,67,47,31.00,30.86,5,3,12,0.00
2013-11-23,27,20,15,15,12,9,78,70,59,31.07,30.85,3,2,0,0.00
2013-11-24,18,18,17,13,12,12,81,80,80,30.74,30.72,2,1,12,0.00
2013-11-25,45,32,20,29,21,17,87,67,40,30.48,30.27,9,3,12,0.00
2013-11-26,34,25,14,21,15,7,79,68,45,30.65,30.47,11,3,14,0.00
2013-11-27,56,31,12,31,20,6,82,63,36,30.65,30.18,9,2,12,0.00
2013-11-28,36,26,20,25,20,16,84,77,64,30.60,30.32,6,2,8,0.00
2013-11-29,45,29,21,31,22,16,85,75,58,30.60,30.31,7,3,10,0.00
2013-11-30,60,37,22,35,26,18,85,68,33,30.33,30.23,7,2,9,0.00
2013-12-1,54,36,21,33,26,17,84,69,44,30.31,29.94,5,1,7,0.00
2013-12-2,63,46,32,36,30,24,74,56,36,29.94,29.61,9,2,11,0.00
2013-12-3,35,32,27,30,26,20,88,81,72,29.85,29.61,11,4,17,0.00
2013-12-4,17,13,8,5,2,-4,67,59,55,30.47,30.05,16,12,24,0.00
2013-12-5,14,7,1,-3,-5,-7,69,58,42,30.65,30.45,9,5,15,0.00
2013-12-6,13,5,-3,-5,-8,-12,67,56,41,30.96,30.73,6,3,9,0.00
2013-12-7,10,4,-3,4,-6,-11,78,65,54,30.95,30.53,9,5,15,0.00
2013-12-8,14,9,-2,8,3,-9,80,75,62,30.53,30.24,9,4,13,0.00
2013-12-9,24,8,-5,9,-2,-12,74,65,53,30.58,30.39,11,5,15,0.00
2013-12-10,38,28,18,21,13,7,75,54,33,30.54,30.25,12,6,15,0.00
2013-12-11,26,19,7,16,11,1,78,71,63,30.81,30.54,11,4,14,0.00
2013-12-12,22,18,13,14,11,8,80,76,70,30.62,30.60,2,0,2,0.00
2013-12-13,33,24,21,21,17,15,80,75,60,30.36,30.16,10,6,14,0.00
2013-12-14,47,25,15,27,16,10,83,72,43,30.43,30.33,13,4,20,0.00
2013-12-15,56,43,30,29,25,20,70,51,35,30.33,30.10,12,5,17,0.00
2013-12-16,58,38,23,29,23,17,80,59,32,30.38,30.13,7,2,9,0.00
2013-12-17,42,27,21,26,20,15,82,75,51,30.52,30.36,6,2,9,0.00
2013-12-18,68,44,26,31,23,17,70,48,22,30.03,29.82,8,2,11,0.00
2013-12-19,38,26,11,26,18,5,82,74,63,30.19,29.83,12,6,18,0.00
2013-12-20,22,15,10,10,6,3,77,69,59,30.24,30.07,12,4,14,0.00
2013-12-21,34,19,8,17,10,2,79,69,49,30.18,29.95,9,3,13,0.00
2013-12-22,32,20,6,16,11,1,82,70,49,30.63,30.18,10,4,15,0.00
2013-12-23,16,12,8,9,5,2,80,73,64,30.79,30.57,8,4,10,0.00
2013-12-24,41,26,12,34,20,6,85,79,66,30.57,30.27,12,5,15,0.01
2013-12-25,42,29,20,26,20,16,86,70,44,30.59,30.43,9,3,13,0.00
2013-12-26,54,34,18,26,20,12,77,58,34,30.44,30.32,11,4,16,0.00
2013-12-27,60,35,20,30,22,14,82,62,31,30.44,30.29,7,2,9,0.00
2013-12-28,58,31,14,30,20,3,81,64,33,30.45,29.93,14,5,0,0.00
2013-12-29,23,14,5,5,2,-3,73,59,45,30.63,30.37,10,5,0,0.00
2013-12-30,48,27,16,27,15,6,81,61,43,30.41,30.27,16,4,0,0.00
2013-12-31,55,32,18,29,20,14,83,64,36,30.40,30.10,9,4,13,0.00
2014-1-1,25,19,14,19,13,8,82,76,71,30.62,30.18,8,5,13,0.00
2014-1-2,36,24,14,25,18,9,85,77,62,30.60,30.41,8,4,10,0.02